»·PEaware :: N8735K KCMA-KHHR

N8735K :: KCMA-KHHR

FLIGHT INFORMATION

Flight Status: Arrived
Operator: Privately registered:
United States
More flights under this callsign
Pilot: Jeff K. (12978)
Aircraft: BEECH AIRCRAFT BARON
(BE58)
More flights by this aircraft type
Origin: KCMA Camarillo
United States
Destination: KHHR Northrop/Hawthorne Mun
United States
More flights between these airports :: More routes between these airports
Route: +VTU V299 SADDE V107 SMO SMO125 POPPR V23 SLI
File this flight plan on PilotEdge
Remarks:
Altitude:
(Current/Filed)
5,000ft
Speed:
(Current/Filed)
160kts
Departed: 04-Nov-17 12:49 PM
Arrived: 04-Nov-17 01:42 PM
Distance/Time
Traveled:
42nm/0:52
Distance/Time
To Go:
Arrived

Flight Plot

Page will automatically refresh every two minutes.


Map Options




Map Legend


Flown Route
Filed Route
Departure Airport
Arrival Airport
Navaid (VOR, NDB)
Fix

Horizontal Profiles

Position Reports

Time Latitude Longitude Heading Altitude Ground
Speed
04-Nov-17 12:33 34.210563 -119.095231 1 60ft 0kts
04-Nov-17 12:34 34.210563 -119.095231 1 60ft 0kts
04-Nov-17 12:35 34.210563 -119.095231 1 60ft 0kts
04-Nov-17 12:36 34.210563 -119.095231 1 60ft 0kts
04-Nov-17 12:37 34.210563 -119.095231 1 60ft 0kts
04-Nov-17 12:38 34.210563 -119.095231 1 60ft 0kts
04-Nov-17 12:39 34.210563 -119.095231 1 60ft 0kts
04-Nov-17 12:40 34.210563 -119.095231 1 60ft 0kts
04-Nov-17 12:41 34.210563 -119.095231 1 60ft 0kts
04-Nov-17 12:42 34.210563 -119.095231 1 60ft 0kts
04-Nov-17 12:43 34.210563 -119.095231 1 60ft 0kts
04-Nov-17 12:44 34.210563 -119.095231 1 60ft 0kts
04-Nov-17 12:45 34.210563 -119.095231 1 60ft 0kts
04-Nov-17 12:46 34.210563 -119.095231 1 60ft 0kts
04-Nov-17 12:47 34.210918 -119.095121 44 61ft 5kts
04-Nov-17 12:48 34.211815 -119.091715 90 63ft 17kts
04-Nov-17 12:49 34.211761 -119.085244 90 70ft 21kts
04-Nov-17 12:50 34.212199 -119.084375 287 72ft 0kts
04-Nov-17 12:51 34.212199 -119.084375 287 72ft 0kts
04-Nov-17 12:52 34.212853 -119.084605 0 73ft 0kts
04-Nov-17 12:53 34.212854 -119.084605 0 73ft 0kts
04-Nov-17 12:54 34.214330 -119.106434 278 492ft 125kts
04-Nov-17 12:55 34.224680 -119.147674 286 1975ft 126kts
04-Nov-17 12:56 34.231912 -119.175979 288 2845ft 130kts
04-Nov-17 12:57 34.240593 -119.209071 286 3838ft 130kts
04-Nov-17 12:58 34.250635 -119.248750 285 4848ft 130kts
04-Nov-17 12:59 34.262361 -119.295373 287 4997ft 161kts
04-Nov-17 13:00 34.276979 -119.348202 287 5002ft 170kts
04-Nov-17 13:01 34.291685 -119.402919 288 4994ft 172kts
04-Nov-17 13:02 34.306331 -119.457311 287 5010ft 172kts
04-Nov-17 13:03 34.319518 -119.512912 260 4998ft 172kts
04-Nov-17 13:04 34.286007 -119.506690 113 5006ft 178kts
04-Nov-17 13:05 34.267528 -119.450401 112 5002ft 180kts
04-Nov-17 13:06 34.249147 -119.394037 112 4984ft 182kts
04-Nov-17 13:07 34.230560 -119.337530 112 4992ft 180kts
04-Nov-17 13:08 34.211754 -119.281387 112 4991ft 180kts
04-Nov-17 13:09 34.193141 -119.224823 111 4982ft 181kts
04-Nov-17 13:10 34.174355 -119.168631 112 4971ft 181kts
04-Nov-17 13:11 34.155541 -119.112428 112 5000ft 181kts
04-Nov-17 13:12 34.137010 -119.055968 112 5034ft 182kts
04-Nov-17 13:13 34.118210 -118.998337 111 5004ft 184kts
04-Nov-17 13:14 34.099686 -118.941260 111 5002ft 182kts
04-Nov-17 13:15 34.081277 -118.884490 111 4997ft 181kts
04-Nov-17 13:16 34.063032 -118.828277 111 5010ft 182kts
04-Nov-17 13:17 34.049756 -118.776965 105 5018ft 183kts
04-Nov-17 13:18 34.039677 -118.734439 105 5001ft 182kts
04-Nov-17 13:19 34.026979 -118.681626 106 5004ft 182kts
04-Nov-17 13:20 34.012881 -118.623203 106 5002ft 181kts
04-Nov-17 13:21 34.010646 -118.563017 89 5015ft 181kts
04-Nov-17 13:22 34.010550 -118.502430 89 5022ft 182kts
04-Nov-17 13:23 34.004337 -118.447357 116 5000ft 173kts
04-Nov-17 13:24 33.968128 -118.412815 141 5002ft 170kts
04-Nov-17 13:25 33.932037 -118.376951 140 5005ft 169kts
04-Nov-17 13:26 33.898266 -118.343172 142 5007ft 173kts
04-Nov-17 13:27 33.861833 -118.307003 141 4997ft 173kts
04-Nov-17 13:28 33.843150 -118.263168 78 5006ft 173kts
04-Nov-17 13:29 33.855742 -118.210670 71 4997ft 174kts
04-Nov-17 13:30 33.868829 -118.159643 70 4936ft 177kts
04-Nov-17 13:31 33.882085 -118.109518 71 4980ft 173kts
04-Nov-17 13:32 33.894893 -118.059498 72 4984ft 175kts
04-Nov-17 13:33 33.908038 -118.008987 67 4979ft 175kts
04-Nov-17 13:34 33.939180 -117.989191 334 4278ft 150kts
04-Nov-17 13:35 33.949801 -118.019404 253 3298ft 134kts
04-Nov-17 13:36 33.943857 -118.040716 250 3162ft 130kts
04-Nov-17 13:37 33.936302 -118.066908 267 3106ft 130kts
04-Nov-17 13:38 33.934628 -118.098318 263 3075ft 122kts
04-Nov-17 13:39 33.932671 -118.123000 266 2935ft 125kts
04-Nov-17 13:40 33.931816 -118.144281 266 3001ft 127kts
04-Nov-17 13:41 33.930372 -118.173941 268 2659ft 124kts
04-Nov-17 13:42 33.929253 -118.197030 265 2266ft 116kts
04-Nov-17 13:43 33.928553 -118.216917 270 1905ft 124kts
04-Nov-17 13:44 33.926262 -118.244800 262 1496ft 124kts
04-Nov-17 13:45 33.924508 -118.286392 269 784ft 125kts
04-Nov-17 13:46 33.923406 -118.323091 268 196ft 100kts
04-Nov-17 13:47 33.922384 -118.337510 155 58ft 0kts
04-Nov-17 13:48 33.921975 -118.334673 34 56ft 0kts

Navigation Log

Ident Type
Flight plan parsing failed, navigation log unavailable